createdAt,value
2018-02-23T00:02:14.389Z,95.14
2018-02-23T00:04:40.798Z,94.85
2018-02-23T00:07:07.126Z,94.62
2018-02-23T00:09:33.518Z,94.73
2018-02-23T00:11:59.836Z,94.79
2018-02-23T00:14:26.164Z,94.70
2018-02-23T00:16:52.519Z,94.08
2018-02-23T00:19:18.848Z,93.92
2018-02-23T00:21:48.959Z,94.22
2018-02-23T00:24:15.346Z,94.43
2018-02-23T00:26:41.668Z,94.60
2018-02-23T00:29:07.986Z,94.70
2018-02-23T00:31:34.397Z,94.68
2018-02-23T00:34:00.730Z,95.05
2018-02-23T00:36:27.112Z,94.67
2018-02-23T00:38:53.470Z,94.43
2018-02-23T00:41:20.846Z,94.62
2018-02-23T00:43:47.139Z,94.98
2018-02-23T00:46:13.478Z,94.68
2018-02-23T00:48:39.794Z,94.71
2018-02-23T00:51:06.151Z,94.42
2018-02-23T00:53:32.510Z,94.75
2018-02-23T00:55:58.827Z,94.34
2018-02-23T00:58:25.196Z,94.18
2018-02-23T01:00:52.643Z,93.64
2018-02-23T01:03:19.021Z,93.76
2018-02-23T01:05:45.321Z,94.32
2018-02-23T01:08:11.692Z,94.69
2018-02-23T01:10:38.133Z,94.64
2018-02-23T01:13:04.527Z,94.70
2018-02-23T01:15:30.851Z,94.80
2018-02-23T01:17:57.185Z,94.86
2018-02-23T01:20:23.542Z,95.09
2018-02-23T01:22:49.913Z,94.86
2018-02-23T01:25:16.277Z,94.36
2018-02-23T01:27:42.591Z,94.64
2018-02-23T01:30:09.080Z,94.59
2018-02-23T01:32:35.422Z,94.79
2018-02-23T01:35:01.721Z,94.70
2018-02-23T01:37:28.095Z,94.91
2018-02-23T01:39:54.484Z,94.99
2018-02-23T01:42:20.832Z,94.72
2018-02-23T01:44:47.224Z,94.65
2018-02-23T01:47:13.619Z,94.50
2018-02-23T01:49:43.509Z,94.52
2018-02-23T01:52:09.897Z,94.84
2018-02-23T01:54:36.245Z,95.08
2018-02-23T01:57:02.599Z,95.08
2018-02-23T01:59:28.963Z,94.96
2018-02-23T02:01:55.328Z,93.08
2018-02-23T02:04:21.681Z,93.15
2018-02-23T02:06:48.063Z,93.84
2018-02-23T02:09:14.401Z,94.12
2018-02-23T02:11:48.125Z,93.67
2018-02-23T02:14:14.511Z,94.25
2018-02-23T02:16:40.811Z,94.45
2018-02-23T02:19:07.316Z,95.05
2018-02-23T02:21:33.762Z,94.76
2018-02-23T02:24:00.070Z,94.35
2018-02-23T02:26:26.447Z,91.97
2018-02-23T02:28:52.819Z,91.21
2018-02-23T02:31:29.335Z,92.93
2018-02-23T02:33:55.714Z,93.78
2018-02-23T02:36:22.093Z,93.99
2018-02-23T02:38:48.449Z,94.65
2018-02-23T02:41:14.904Z,94.80
2018-02-23T02:43:41.262Z,94.72
2018-02-23T02:46:07.630Z,94.67
2018-02-23T02:48:33.959Z,94.93
2018-02-23T02:51:00.340Z,94.73
2018-02-23T02:53:26.680Z,94.60
2018-02-23T02:55:52.988Z,94.89
2018-02-23T02:58:19.428Z,94.63
2018-02-23T03:00:46.850Z,94.77
2018-02-23T03:03:13.187Z,94.79
2018-02-23T03:05:39.496Z,93.38
2018-02-23T03:08:05.902Z,93.46
2018-02-23T03:10:32.299Z,94.17
2018-02-23T03:12:58.617Z,94.48
2018-02-23T03:15:24.993Z,94.58
2018-02-23T03:17:51.319Z,94.96
2018-02-23T03:20:17.791Z,94.53
2018-02-23T03:22:44.215Z,93.73
2018-02-23T03:25:10.529Z,94.03
2018-02-23T03:27:36.890Z,94.64
2018-02-23T03:30:04.350Z,94.61
2018-02-23T03:32:30.653Z,94.75
2018-02-23T03:34:56.948Z,94.97
2018-02-23T03:37:23.329Z,95.04
2018-02-23T03:39:54.578Z,95.34
2018-02-23T03:42:20.892Z,95.12
2018-02-23T03:44:47.223Z,95.03
2018-02-23T03:47:13.554Z,94.86
2018-02-23T03:49:41.024Z,95.01
2018-02-23T03:52:07.608Z,95.15
2018-02-23T03:54:33.966Z,95.02
2018-02-23T03:57:00.339Z,94.99
2018-02-23T03:59:26.661Z,94.85
2018-02-23T04:01:56.629Z,94.58
2018-02-23T04:04:22.996Z,95.03
2018-02-23T04:06:49.329Z,95.10
2018-02-23T04:09:15.645Z,94.82
2018-02-23T04:11:43.203Z,94.55
2018-02-23T04:14:09.551Z,94.91
2018-02-23T04:16:35.954Z,95.22
2018-02-23T04:19:02.411Z,95.20
2018-02-23T04:21:28.810Z,95.05
2018-02-23T04:23:55.151Z,95.15
2018-02-23T04:26:21.539Z,95.14
2018-02-23T04:28:47.896Z,95.40
2018-02-23T04:31:14.290Z,94.80
2018-02-23T04:33:40.685Z,94.90
2018-02-23T04:36:07.016Z,94.96
2018-02-23T04:38:33.481Z,95.06
2018-02-23T04:40:59.942Z,95.17
2018-02-23T04:43:26.293Z,94.85
2018-02-23T04:45:52.623Z,95.05
2018-02-23T04:48:18.930Z,95.28
2018-02-23T04:50:45.315Z,95.01
2018-02-23T04:53:11.704Z,94.98
2018-02-23T04:55:38.125Z,95.35
2018-02-23T04:58:04.495Z,95.10
2018-02-23T05:00:32.844Z,95.17
2018-02-23T05:02:59.425Z,95.14
2018-02-23T05:05:25.816Z,95.14
2018-02-23T05:07:52.188Z,95.37
2018-02-23T05:10:18.764Z,94.92
2018-02-23T05:12:45.114Z,95.38
2018-02-23T05:15:11.502Z,95.09
2018-02-23T05:17:37.989Z,95.05
2018-02-23T05:20:08.531Z,95.08
2018-02-23T05:22:34.878Z,95.24
2018-02-23T05:25:01.384Z,95.04
2018-02-23T05:27:27.874Z,95.10
2018-02-23T05:29:58.223Z,95.03
2018-02-23T05:32:25.146Z,94.61
2018-02-23T05:34:51.617Z,94.86
2018-02-23T05:37:18.022Z,94.73
2018-02-23T05:39:44.798Z,94.53
2018-02-23T05:42:11.564Z,94.90
2018-02-23T05:44:38.048Z,94.86
2018-02-23T05:47:04.540Z,94.68
2018-02-23T05:49:30.906Z,94.51
2018-02-23T05:51:58.314Z,94.57
2018-02-23T05:54:24.785Z,94.45
2018-02-23T05:56:51.298Z,94.49
2018-02-23T05:59:17.648Z,94.71
2018-02-23T06:01:44.156Z,94.09
2018-02-23T06:04:10.488Z,93.47
2018-02-23T06:06:36.879Z,93.94
2018-02-23T06:09:03.339Z,94.08
2018-02-23T06:11:29.722Z,93.46
2018-02-23T06:13:56.078Z,93.97
2018-02-23T06:16:27.471Z,93.34
2018-02-23T06:18:57.791Z,93.12
2018-02-23T06:21:25.183Z,92.25
2018-02-23T06:23:51.611Z,90.71
2018-02-23T06:26:17.993Z,90.94
2018-02-23T06:28:44.356Z,90.24
2018-02-23T06:31:10.879Z,91.72
2018-02-23T06:33:37.331Z,89.09
2018-02-23T06:36:03.806Z,89.01
2018-02-23T06:38:30.492Z,88.84
2018-02-23T06:40:56.987Z,88.63
2018-02-23T06:43:23.395Z,89.48
2018-02-23T06:45:49.864Z,88.28
2018-02-23T06:48:16.261Z,87.86
2018-02-23T06:50:46.776Z,89.30
2018-02-23T06:53:13.158Z,88.27
2018-02-23T06:55:39.505Z,87.53
2018-02-23T06:58:05.835Z,88.27
2018-02-23T07:00:34.350Z,82.93
2018-02-23T07:03:00.689Z,81.59
2018-02-23T07:05:27.047Z,82.63
2018-02-23T07:07:53.462Z,86.04
2018-02-23T07:10:20.901Z,84.08
2018-02-23T07:12:47.317Z,85.46
2018-02-23T07:15:13.681Z,84.71
2018-02-23T07:17:40.165Z,87.50
2018-02-23T07:20:06.619Z,84.69
2018-02-23T07:22:33.802Z,86.05
2018-02-23T07:25:00.130Z,84.71
2018-02-23T07:27:26.488Z,86.80
2018-02-23T07:29:52.960Z,86.96
2018-02-23T07:32:19.290Z,85.58
2018-02-23T07:34:45.658Z,86.14
2018-02-23T07:37:12.028Z,84.23
2018-02-23T07:39:38.375Z,85.08
2018-02-23T07:42:04.950Z,81.84
2018-02-23T07:44:31.482Z,84.14
2018-02-23T07:46:57.923Z,83.94
2018-02-23T07:49:24.403Z,85.75
2018-02-23T07:51:50.918Z,84.98
2018-02-23T07:54:17.255Z,84.58
2018-02-23T07:56:43.912Z,84.85
2018-02-23T07:59:10.348Z,83.77
2018-02-23T08:01:36.939Z,83.88
2018-02-23T08:04:03.963Z,82.58
2018-02-23T08:06:30.339Z,84.09
2018-02-23T08:08:56.749Z,81.15
2018-02-23T08:11:23.193Z,81.72
2018-02-23T08:13:49.579Z,82.92
2018-02-23T08:16:15.969Z,82.60
2018-02-23T08:18:42.382Z,81.88
2018-02-23T08:21:08.910Z,81.07
2018-02-23T08:23:35.271Z,78.66
2018-02-23T08:26:01.662Z,77.29
2018-02-23T08:28:28.213Z,77.60
2018-02-23T08:30:55.886Z,81.85
2018-02-23T08:33:22.293Z,79.40
2018-02-23T08:35:48.877Z,81.39
2018-02-23T08:38:15.320Z,77.32
2018-02-23T08:40:41.814Z,76.64
2018-02-23T08:43:08.283Z,76.95
2018-02-23T08:45:34.689Z,76.94
2018-02-23T08:48:01.114Z,79.94
2018-02-23T08:50:29.724Z,74.67
2018-02-23T08:52:56.132Z,79.14
2018-02-23T08:55:22.527Z,76.66
2018-02-23T08:57:49.857Z,76.52
2018-02-23T09:00:17.542Z,74.04
2018-02-23T09:02:44.039Z,76.58
2018-02-23T09:05:10.485Z,76.06
2018-02-23T09:07:36.901Z,72.14
2018-02-23T09:10:03.419Z,72.34
2018-02-23T09:12:29.838Z,72.92
2018-02-23T09:14:56.237Z,73.39
2018-02-23T09:17:22.677Z,72.27
2018-02-23T09:19:49.147Z,73.65
2018-02-23T09:22:18.666Z,73.44
2018-02-23T09:24:45.042Z,71.18
2018-02-23T09:27:11.442Z,70.47
2018-02-23T09:29:37.835Z,68.57
2018-02-23T09:32:11.235Z,70.45
2018-02-23T09:34:45.464Z,68.36
2018-02-23T09:37:11.936Z,69.02
2018-02-23T09:39:38.367Z,72.68
2018-02-23T09:42:08.207Z,69.17
2018-02-23T09:44:34.649Z,68.83
2018-02-23T09:47:01.038Z,66.95
2018-02-23T09:49:27.448Z,69.23
2018-02-23T09:51:53.891Z,69.95
2018-02-23T09:54:20.207Z,68.18
2018-02-23T09:56:46.568Z,69.12
2018-02-23T09:59:12.913Z,67.70
2018-02-23T10:01:39.317Z,70.06
2018-02-23T10:04:05.675Z,69.14
2018-02-23T10:06:32.145Z,65.26
2018-02-23T10:08:58.515Z,69.10
2018-02-23T10:11:32.140Z,69.86
2018-02-23T10:13:58.554Z,65.04
2018-02-23T10:16:24.984Z,64.36
2018-02-23T10:18:51.529Z,64.66
2018-02-23T10:21:23.048Z,65.29
2018-02-23T10:23:49.456Z,69.55
2018-02-23T10:26:15.824Z,63.23
2018-02-23T10:28:42.187Z,62.24
2018-02-23T10:31:08.682Z,63.15
2018-02-23T10:33:35.344Z,64.33
2018-02-23T10:36:01.835Z,66.18
2018-02-23T10:38:28.641Z,61.73
2018-02-23T10:40:55.121Z,64.60
2018-02-23T10:43:21.544Z,65.26
2018-02-23T10:45:48.618Z,64.71
2018-02-23T10:48:14.989Z,64.44
2018-02-23T10:50:41.379Z,63.57
2018-02-23T10:53:07.779Z,65.89
2018-02-23T10:55:34.107Z,66.56
2018-02-23T10:58:00.474Z,66.66
2018-02-23T11:00:26.978Z,66.40
2018-02-23T11:02:53.405Z,65.49
2018-02-23T11:05:19.829Z,65.33
2018-02-23T11:07:46.266Z,65.03
2018-02-23T11:10:12.839Z,65.91
2018-02-23T11:12:39.227Z,70.21
2018-02-23T11:15:05.705Z,64.88
2018-02-23T11:17:32.232Z,66.87
2018-02-23T11:19:58.875Z,66.90
2018-02-23T11:22:25.639Z,65.91
2018-02-23T11:24:52.071Z,65.82
2018-02-23T11:27:18.524Z,65.96
2018-02-23T11:29:44.976Z,66.16
2018-02-23T11:32:11.479Z,67.90
2018-02-23T11:34:37.812Z,66.52
2018-02-23T11:37:04.155Z,66.67
2018-02-23T11:39:30.476Z,65.40
2018-02-23T11:41:56.920Z,61.58
2018-02-23T11:44:23.414Z,63.86
2018-02-23T11:46:49.907Z,66.44
2018-02-23T11:49:16.485Z,66.57
2018-02-23T11:51:45.054Z,67.89
2018-02-23T11:54:11.722Z,68.69
2018-02-23T11:56:38.608Z,69.49
2018-02-23T11:59:05.188Z,69.66
2018-02-23T12:01:33.113Z,68.20
2018-02-23T12:03:59.828Z,68.11
2018-02-23T12:06:26.291Z,68.39
2018-02-23T12:08:53.138Z,69.28
2018-02-23T12:11:19.961Z,70.52
2018-02-23T12:13:46.774Z,72.21
2018-02-23T12:16:13.486Z,71.22
2018-02-23T12:18:40.401Z,69.55
2018-02-23T12:21:06.946Z,67.19
2018-02-23T12:23:33.609Z,68.81
2018-02-23T12:26:00.082Z,67.89
2018-02-23T12:28:26.688Z,70.00
2018-02-23T12:30:54.307Z,69.25
2018-02-23T12:33:20.814Z,69.43
2018-02-23T12:35:48.477Z,69.43
2018-02-23T12:38:15.149Z,69.18
2018-02-23T12:40:41.880Z,68.14
2018-02-23T12:43:08.522Z,71.61
2018-02-23T12:45:35.902Z,68.38
2018-02-23T12:48:02.348Z,69.47
2018-02-23T12:50:29.099Z,70.20
2018-02-23T12:55:22.235Z,69.55
2018-02-23T12:57:48.908Z,67.98
2018-02-23T13:00:15.646Z,68.79
2018-02-23T13:02:42.368Z,69.59
2018-02-23T13:05:08.772Z,69.12
2018-02-23T13:07:36.237Z,69.84
2018-02-23T13:10:02.804Z,69.01
2018-02-23T13:12:29.229Z,68.95
2018-02-23T13:15:01.864Z,69.46
2018-02-23T13:17:28.511Z,70.48
2018-02-23T13:19:55.121Z,70.45
2018-02-23T13:22:21.869Z,69.54
2018-02-23T13:24:48.534Z,71.04
2018-02-23T13:27:19.888Z,70.51
2018-02-23T13:29:49.402Z,69.80
2018-02-23T13:32:20.065Z,72.27
2018-02-23T13:34:48.125Z,71.58
2018-02-23T13:37:14.588Z,70.83
2018-02-23T13:39:56.466Z,71.92
2018-02-23T13:42:23.245Z,72.30
2018-02-23T13:44:49.748Z,72.18
2018-02-23T13:47:16.285Z,71.89
2018-02-23T13:49:42.959Z,73.46
2018-02-23T13:52:10.603Z,74.22
2018-02-23T13:54:37.358Z,71.42
2018-02-23T13:57:03.980Z,70.73
2018-02-23T13:59:30.438Z,72.40
2018-02-23T14:01:56.882Z,70.99
2018-02-23T14:04:23.322Z,72.19
2018-02-23T14:06:50.100Z,71.67
2018-02-23T14:09:16.544Z,72.51
2018-02-23T14:11:42.996Z,74.18
2018-02-23T14:14:09.377Z,73.01
2018-02-23T14:16:36.263Z,73.11
2018-02-23T14:19:02.682Z,73.50
2018-02-23T14:21:31.089Z,74.50
2018-02-23T14:23:57.515Z,73.65
2018-02-23T14:26:23.892Z,74.09
2018-02-23T14:28:50.322Z,73.15
2018-02-23T14:31:17.038Z,73.75
2018-02-23T14:33:43.488Z,74.20
2018-02-23T14:36:09.894Z,75.15
2018-02-23T14:38:36.349Z,74.64
2018-02-23T14:41:02.805Z,75.14
2018-02-23T14:43:29.212Z,76.46
2018-02-23T14:45:55.670Z,74.43
2018-02-23T14:48:34.202Z,74.22
2018-02-23T14:51:09.914Z,74.94
2018-02-23T14:53:37.389Z,75.76
2018-02-23T14:56:03.859Z,75.87
2018-02-23T14:58:30.556Z,75.90
2018-02-23T15:01:00.283Z,76.08
2018-02-23T15:03:27.789Z,75.65
2018-02-23T15:05:54.455Z,76.62
2018-02-23T15:08:21.409Z,76.38
2018-02-23T15:10:48.613Z,76.68
2018-02-23T15:13:15.406Z,77.61
2018-02-23T15:15:43.058Z,76.40
2018-02-23T15:18:12.511Z,76.00
2018-02-23T15:20:41.111Z,76.41
2018-02-23T15:23:08.249Z,76.44
2018-02-23T15:25:35.234Z,77.98
2018-02-23T15:28:02.445Z,77.57
2018-02-23T15:30:41.177Z,77.70
2018-02-23T15:33:08.475Z,78.10
2018-02-23T15:35:34.984Z,78.75
2018-02-23T15:38:01.502Z,78.52
2018-02-23T15:40:28.047Z,78.71
2018-02-23T15:42:54.885Z,79.38
2018-02-23T15:45:21.671Z,79.87
2018-02-23T15:47:54.388Z,79.36
2018-02-23T15:50:24.985Z,79.65
2018-02-23T15:52:51.759Z,80.88
2018-02-23T15:55:19.168Z,79.32
2018-02-23T15:57:53.848Z,79.96
2018-02-23T16:00:20.644Z,80.24
2018-02-23T16:02:47.167Z,81.01
2018-02-23T16:05:13.813Z,80.53
2018-02-23T16:07:42.297Z,80.23
2018-02-23T16:10:10.496Z,80.33
2018-02-23T16:12:40.398Z,79.88
2018-02-23T16:15:06.979Z,79.70
2018-02-23T16:17:33.429Z,80.51
2018-02-23T16:20:00.120Z,79.85
2018-02-23T16:22:37.194Z,79.58
2018-02-23T16:25:03.814Z,79.85
2018-02-23T16:27:30.477Z,79.68
2018-02-23T16:29:57.118Z,80.46
2018-02-23T16:32:24.657Z,79.60
2018-02-23T16:34:51.259Z,80.29
2018-02-23T16:37:17.782Z,81.08
2018-02-23T16:39:44.374Z,80.72
2018-02-23T16:42:12.024Z,81.81
2018-02-23T16:44:38.540Z,81.53
2018-02-23T16:47:05.549Z,81.02
2018-02-23T16:49:32.389Z,81.37
2018-02-23T16:52:04.851Z,80.82
2018-02-23T16:54:31.549Z,80.83
2018-02-23T16:56:58.538Z,81.48
2018-02-23T16:59:25.209Z,80.72
2018-02-23T17:01:52.288Z,80.92
2018-02-23T17:04:19.457Z,81.27
2018-02-23T17:06:47.097Z,80.57
2018-02-23T17:09:13.779Z,80.95
2018-02-23T17:11:41.753Z,80.85
2018-02-23T17:14:09.731Z,81.26
2018-02-23T17:16:36.628Z,80.54
2018-02-23T17:19:04.228Z,80.82
2018-02-23T17:21:31.208Z,82.09
2018-02-23T17:23:58.413Z,81.11
2018-02-23T17:26:30.495Z,81.39
2018-02-23T17:28:57.735Z,81.65
2018-02-23T17:31:24.761Z,81.40
2018-02-23T17:33:51.543Z,80.76
2018-02-23T17:36:18.131Z,80.94
2018-02-23T17:38:44.886Z,80.99
2018-02-23T17:41:19.453Z,81.02
2018-02-23T17:43:46.286Z,80.58
2018-02-23T17:46:12.894Z,80.86
2018-02-23T17:48:40.301Z,81.27
2018-02-23T17:51:06.899Z,81.63
2018-02-23T17:53:33.791Z,81.63
2018-02-23T17:56:01.156Z,81.69
2018-02-23T17:58:28.488Z,82.09
2018-02-23T18:00:55.219Z,81.76
2018-02-23T18:03:21.825Z,82.07
2018-02-23T18:05:48.404Z,81.80
2018-02-23T18:08:15.032Z,82.12
2018-02-23T18:10:42.108Z,82.29
2018-02-23T18:13:08.646Z,82.28
2018-02-23T18:15:35.308Z,82.63
2018-02-23T18:18:02.286Z,82.49
2018-02-23T18:20:28.884Z,81.92
2018-02-23T18:22:57.615Z,82.31
2018-02-23T18:25:25.660Z,82.51
2018-02-23T18:27:52.484Z,83.08
2018-02-23T18:30:19.489Z,81.70
2018-02-23T18:32:50.615Z,82.45
2018-02-23T18:35:17.391Z,82.19
2018-02-23T18:37:44.213Z,82.52
2018-02-23T18:40:10.901Z,82.34
2018-02-23T18:42:39.774Z,82.25
2018-02-23T18:45:06.782Z,82.72
2018-02-23T18:47:33.760Z,82.77
2018-02-23T18:50:00.899Z,82.72
2018-02-23T18:52:31.551Z,83.24
2018-02-23T18:54:59.164Z,83.11
2018-02-23T18:57:25.766Z,83.74
2018-02-23T18:59:52.401Z,83.08
2018-02-23T19:02:22.093Z,83.25
2018-02-23T19:04:49.002Z,83.80
2018-02-23T19:07:16.084Z,83.73
2018-02-23T19:09:44.428Z,83.12
2018-02-23T19:12:12.127Z,83.20
2018-02-23T19:14:39.074Z,84.03
2018-02-23T19:17:05.756Z,83.70
2018-02-23T19:19:32.516Z,84.01
2018-02-23T19:21:59.677Z,83.27
2018-02-23T19:24:26.740Z,83.07
2018-02-23T19:26:53.791Z,84.19
2018-02-23T19:29:21.139Z,83.78
2018-02-23T19:31:48.264Z,83.80
2018-02-23T19:34:14.997Z,83.19
2018-02-23T19:36:41.923Z,83.01
2018-02-23T19:39:09.416Z,83.63
2018-02-23T19:41:36.403Z,83.59
2018-02-23T19:44:04.077Z,83.02
2018-02-23T19:46:30.679Z,83.22
2018-02-23T19:48:57.216Z,83.46
2018-02-23T19:51:25.440Z,83.44
2018-02-23T19:53:52.358Z,82.92
2018-02-23T19:56:19.391Z,83.23
2018-02-23T19:58:46.159Z,83.70
2018-02-23T20:01:13.885Z,83.97
2018-02-23T20:03:40.410Z,82.70
2018-02-23T20:06:07.830Z,82.40
2018-02-23T20:08:35.427Z,82.51
2018-02-23T20:11:02.133Z,82.94
2018-02-23T20:13:28.807Z,82.80
2018-02-23T20:15:55.370Z,84.10
2018-02-23T20:18:21.952Z,84.00
2018-02-23T20:20:48.800Z,82.53
2018-02-23T20:23:16.335Z,83.37
2018-02-23T20:25:42.950Z,82.74
2018-02-23T20:28:09.377Z,83.64
2018-02-23T20:30:35.883Z,82.89
2018-02-23T20:33:02.491Z,82.66
2018-02-23T20:35:29.002Z,82.35
2018-02-23T20:37:55.575Z,82.32
2018-02-23T20:40:22.024Z,82.76
2018-02-23T20:42:55.691Z,82.42
2018-02-23T20:45:22.186Z,82.69
2018-02-23T20:47:48.642Z,83.01
2018-02-23T20:50:15.092Z,82.75
2018-02-23T20:52:43.710Z,82.42
2018-02-23T20:55:10.099Z,82.41
2018-02-23T20:57:36.637Z,81.58
2018-02-23T21:00:03.209Z,82.48
2018-02-23T21:02:30.486Z,82.46
2018-02-23T21:04:57.220Z,82.07
2018-02-23T21:07:24.098Z,81.37
2018-02-23T21:09:50.664Z,81.56
2018-02-23T21:12:18.478Z,81.38
2018-02-23T21:14:45.183Z,80.97
2018-02-23T21:17:11.682Z,81.06
2018-02-23T21:19:38.358Z,81.15
2018-02-23T21:22:05.017Z,81.55
2018-02-23T21:24:32.152Z,81.79
2018-02-23T21:26:59.095Z,81.95
2018-02-23T21:29:26.296Z,82.27
2018-02-23T21:31:52.786Z,80.89
2018-02-23T21:34:19.595Z,81.37
2018-02-23T21:36:46.264Z,82.13
2018-02-23T21:39:13.802Z,81.11
2018-02-23T21:41:52.551Z,81.00
2018-02-23T21:44:19.236Z,81.15
2018-02-23T21:46:45.760Z,81.76
2018-02-23T21:49:12.403Z,80.74
2018-02-23T21:51:44.722Z,80.89
2018-02-23T21:54:12.424Z,81.29
2018-02-23T21:56:39.222Z,81.18
2018-02-23T21:59:06.475Z,81.36
2018-02-23T22:01:33.126Z,80.87
2018-02-23T22:03:59.718Z,81.85
2018-02-23T22:06:26.105Z,81.16
2018-02-23T22:08:52.456Z,81.64
2018-02-23T22:11:18.836Z,80.79
2018-02-23T22:13:45.547Z,82.30
2018-02-23T22:16:11.955Z,81.90
2018-02-23T22:18:38.463Z,82.13
2018-02-23T22:21:05.239Z,81.70
2018-02-23T22:23:37.700Z,82.24
2018-02-23T22:26:04.066Z,80.83
2018-02-23T22:28:30.414Z,81.35
2018-02-23T22:30:56.796Z,81.92
2018-02-23T22:33:23.251Z,82.11
2018-02-23T22:35:49.635Z,81.42
2018-02-23T22:38:15.983Z,81.48
2018-02-23T22:40:42.403Z,81.44
2018-02-23T22:43:13.782Z,81.20
2018-02-23T22:45:40.208Z,81.37
2018-02-23T22:48:06.597Z,80.99
2018-02-23T22:50:33.081Z,81.22
2018-02-23T22:53:08.609Z,81.42
2018-02-23T22:55:34.945Z,81.98
2018-02-23T22:58:01.318Z,81.33
2018-02-23T23:00:27.824Z,81.30
2018-02-23T23:02:57.530Z,82.30
2018-02-23T23:05:23.884Z,81.70
2018-02-23T23:07:50.298Z,81.69
2018-02-23T23:10:16.972Z,82.26
2018-02-23T23:12:43.475Z,81.75
2018-02-23T23:15:09.920Z,81.26
2018-02-23T23:17:36.298Z,82.20
2018-02-23T23:20:02.703Z,82.71
2018-02-23T23:22:37.614Z,82.31
2018-02-23T23:25:04.442Z,81.78
2018-02-23T23:27:30.932Z,80.95
2018-02-23T23:29:57.311Z,81.67
2018-02-23T23:32:23.810Z,82.53
2018-02-23T23:34:50.161Z,81.62
2018-02-23T23:37:16.551Z,82.98
2018-02-23T23:39:42.853Z,81.37
2018-02-23T23:42:17.518Z,81.85
2018-02-23T23:44:43.902Z,80.85
2018-02-23T23:47:10.260Z,81.40
2018-02-23T23:49:36.641Z,81.80
2018-02-23T23:52:03.107Z,81.73
2018-02-23T23:54:29.458Z,82.43
2018-02-23T23:56:55.872Z,81.48
2018-02-23T23:59:22.222Z,81.66
